CheckWX is a tool to help pilots better visualize weather data.  It is not intended as a substitute for an official pre-flight weather briefing.

17:46:32 UTC

NSTU METAR
Pago Pago International Airport
Pago Pago, American Samoa
Current

57 mins ago

NSTU 201650Z VRB03KT 12SM SCT018 BKN040 BKN100 26/24 A2975 RMK SHRAB15E45 SLP076 T02550235
Observed
Nov-20 @ 16:50 UTC
Wind
  • Variable at 3 KTS
Visibility
19,300 meters
Flight Rules
VFR
Cloud Levels
  • Scattered at 1,800' AGL
  • Broken at 4,000' AGL
  • Broken at 10,000' AGL
Temperature
26°C / 79°F
Dewpoint
24°C / 75°F
Humidity
89%
Altimeter
29.75" Hg
Pressure
1007.42 hPa
Previous

2 hours ago

NSTU 201550Z 00000KT 10SM FEW022 BKN100 25/23 A2974 RMK SLP073 T02540233
Observed
Nov-20 @ 15:50 UTC
Visibility
16,100 meters
Flight Rules
VFR
Cloud Levels
  • Few at 2,200' AGL
  • Broken at 10,000' AGL
Temperature
25°C / 77°F
Dewpoint
23°C / 73°F
Humidity
89%
Altimeter
29.74" Hg
Pressure
1007.12 hPa
Previous

3 hours ago

NSTU 201451Z 00000KT 10SM FEW022 BKN100 BKN200 25/23 A2974 RMK SLP071 8/128 T02540232 57010
Observed
Nov-20 @ 14:51 UTC
Visibility
16,100 meters
Flight Rules
VFR
Cloud Levels
  • Few at 2,200' AGL
  • Broken at 10,000' AGL
  • Broken at 20,000' AGL
Temperature
25°C / 77°F
Dewpoint
23°C / 73°F
Humidity
89%
Altimeter
29.74" Hg
Pressure
1007.12 hPa